Kensington, California
Current Conditions -  °F | °C
As of 9:53 PM on Tuesday 21 Oct 2014 (Local Time) from KOAK Reporting Station
Clear Clear  
Wind Chill: 60°   Ceiling: Unl
Heat Index: 60°   Visibility: 10mi
Dew Point: 50°   Wind: 7mph
Humidity: 69%   Direction: 320°NW
Pressure: 30.05"   Gusts: NA
Location:  37.8981°N, 122.279°W
Report Text: KOAK 220453Z 32006KT 10SM CLR 16/10 A3005 RMK AO2 SLP174 T01560100
Loading
Personal Weather Stations






























Interactive Weather Map
Tropical Storm Tracking
New forecast layout! Learn more

10-Day Weather Forecast

Advertisements
Track Severe Weather on mobile